Lonetree, Wyoming
Current Conditions -  °F | °C
As of 10:55 AM on Sunday 21 Dec 2014 (Local Time) from KFBR Reporting Station
Overcast Overcast  
Wind Chill: 24°   Ceiling: 10000
Heat Index: 37°   Visibility: 10mi
Dew Point: 34°   Wind: 33mph
Humidity: 89%   Direction: 250°WSW
Pressure: 29.84"   Gusts: 48mph
Location:  41.0297°N, 110.145°W
Report Text: KFBR 211755Z AUTO 25029G42KT 10SM SCT016 SCT023 OVC100 03/01 A2984 RMK AO2 T00300013 10030 20007
Loading
Personal Weather Stations






























Interactive Weather Map New forecast layout! Learn more

10-Day Weather Forecast

Advertisements
Track Severe Weather on mobile